Sioux City, IA

7:14 AM CDT on October 01, 2014 (GMT -0500)
Northside Jones House | Change Station
CLOSE
Current Station
Personal Weather Station
Location: Sioux City, IA
Elevation: 1253 ft
Nearby Weather Stations

Elev 1253 ft 42.55 °N, 96.41 °W | Updated 55 seconds ago

Mostly Cloudy
Mostly Cloudy
57.0 °F
Feels Like 57.0 °F
N
0.0
Wind Variable Wind from ESE
Gusts 0.0 mph

Today
High -- | Low -- °F
--% Chance of Precip.
Yesterday
High -- | Low -- °F
Precip. -- in
7:22 AM 7:06 PM
Waxing Crescent, 47% visible
Pressure 29.72 in
Visibility 5.0 miles
Clouds Clear
Dew Point 34 °F
Humidity 42%
Rainfall -999.00 in
Snow Depth Not available.
UV 0 out of 12
Pollen 1.90 out of 12
Air Quality Not available.
Flu Activity Not available.
METAR KSUX 011152Z 00000KT 5SM BR CLR 14/14 A2973 RMK AO2 SLP064 70035 T01440139 10172 20144 53002 $

More Conditions Fewer Conditions

Pressure 29.72 in
Visibility 5.0 miles
Clouds Clear
Dew Point 34 °F
Humidity 42%
Rainfall -999.00 in
Snow Depth Not available.
UV 0 out of 12
Pollen 1.90 out of 12
Air Quality Not available.
Flu Activity Not available.
METAR KSUX 011152Z 00000KT 5SM BR CLR 14/14 A2973 RMK AO2 SLP064 70035 T01440139 10172 20144 53002 $

More Conditions Fewer Conditions

10-Day Weather Forecast

Almanac

Astronomy

Oct. 01, 2014 Rise Set
Actual Time 7:22 AM CDT 7:06 PM CDT
Civil Twilight 6:54 AM CDT 7:34 PM CDT
Nautical Twilight 6:22 AM CDT 8:07 PM CDT
Astronomical Twilight 5:48 AM CDT 8:40 PM CDT
Moon 2:29 PM CDT No Moon Set
Length of Visible Light 12h 40m
Length of Day
11h 44m
Tomorrow will be 2m 50s shorter.
Waxing Crescent, 47% of the Moon is Illuminated
Today
Waxing Crescent
Oct 1
First Quarter
Oct 8
Full
Oct 15
Last Quarter
Oct 23
New

Today's Extremes

State Highs State Lows

Community

WunderPhotos

Upload Photos

1,757,914 photos uploaded!

WunderBlogs® & News

Nearby

Snow Depth

Station Depth Elevation
No new snow has been reported.

Earthquake Activity

City Distance Mag. Time & Date
No recent earthquake activity has been reported nearby.
Minimum magnitude displayed is 2.5.

Coastal Water Temperatures

Place Temperature
No Stations Reporting

Nearby Weather Stations